Time;durP1;ratioP1;P1;durP2;ratioP2;P2;SDS_P1;SDS_P2;PMS_P1;PMS_P2;Temp;Humidity;BMP_temperature;BMP_pressure;BME280_temperature;BME280_humidity;BME280_pressure;Samples;Min_cycle;Max_cycle;Signal;HPM_P1;HPM_P2
2022/01/18 00:01:13;;;;;;;9.67;2.30;;;6.50;99.90;;;;;;4988542;28;20668;-62
2022/01/18 00:03:40;;;;;;;12.67;1.77;;;6.50;99.90;;;;;;4973053;28;21267;-62
2022/01/18 00:06:07;;;;;;;8.73;1.93;;;6.50;99.90;;;;;;4977038;28;20214;-62
2022/01/18 00:08:35;;;;;;;5.37;1.63;;;6.50;99.90;;;;;;4980199;28;20227;-63
2022/01/18 00:11:02;;;;;;;6.07;1.80;;;6.40;99.90;;;;;;4982788;28;20726;-63
2022/01/18 00:13:42;;;;;;;9.40;1.93;;;6.40;99.90;;;;;;4974745;28;21185;-63
2022/01/18 00:16:27;;;;;;;5.53;1.90;;;6.40;99.90;;;;;;4992082;28;20210;-63
2022/01/18 00:18:55;;;;;;;12.53;2.10;;;6.50;99.90;;;;;;4983291;28;20203;-63
2022/01/18 00:21:30;;;;;;;6.97;1.70;;;6.50;99.90;;;;;;4965247;28;20342;-63
2022/01/18 00:23:59;;;;;;;17.10;2.13;;;6.50;99.90;;;;;;4980039;28;21215;-62
2022/01/18 00:26:30;;;;;;;8.93;1.63;;;6.50;99.90;;;;;;4983895;28;20272;-62
2022/01/18 00:29:03;;;;;;;7.23;1.57;;;6.50;99.90;;;;;;4976646;28;20256;-63
2022/01/18 00:31:53;;;;;;;4.27;1.50;;;6.50;99.90;;;;;;4997061;28;20206;-63
2022/01/18 00:34:27;;;;;;;6.63;1.70;;;6.50;99.90;;;;;;4978046;28;20215;-63
2022/01/18 00:36:58;;;;;;;9.07;2.07;;;6.50;99.90;;;;;;4972825;28;20203;-63
2022/01/18 00:39:27;;;;;;;9.90;1.90;;;6.50;99.90;;;;;;4992607;28;20207;-63
2022/01/18 00:41:55;;;;;;;7.97;2.33;;;6.40;99.90;;;;;;4976350;28;20195;-62
2022/01/18 00:44:23;;;;;;;12.10;2.57;;;6.40;99.90;;;;;;4969396;28;20215;-62
2022/01/18 00:46:51;;;;;;;11.73;1.80;;;6.30;99.90;;;;;;4965184;28;20206;-62
2022/01/18 00:49:19;;;;;;;13.37;2.47;;;6.40;99.90;;;;;;4990943;28;20225;-62
2022/01/18 00:51:52;;;;;;;10.73;1.87;;;6.30;99.90;;;;;;4967412;28;20203;-63
2022/01/18 00:54:24;;;;;;;10.00;2.50;;;6.30;99.90;;;;;;4992308;28;20269;-63
2022/01/18 00:56:54;;;;;;;10.23;1.73;;;6.30;99.90;;;;;;4975686;28;20230;-63
2022/01/18 00:59:22;;;;;;;6.30;1.57;;;6.40;99.90;;;;;;4978379;28;20309;-63
2022/01/18 01:01:49;;;;;;;13.90;2.03;;;6.30;99.90;;;;;;4975747;28;20575;-63
2022/01/18 01:04:20;;;;;;;6.23;1.50;;;6.30;99.90;;;;;;4981883;28;20209;-63
2022/01/18 01:06:47;;;;;;;12.93;2.13;;;6.40;99.90;;;;;;4976577;28;20868;-63
2022/01/18 01:09:14;;;;;;;11.93;1.80;;;6.30;99.90;;;;;;4969779;28;20869;-63
2022/01/18 01:11:41;;;;;;;7.50;2.00;;;6.40;99.90;;;;;;4991427;28;20802;-63
2022/01/18 01:14:15;;;;;;;7.73;1.40;;;6.40;99.90;;;;;;4967221;28;20217;-63
2022/01/18 01:17:12;;;;;;;15.10;2.40;;;6.50;99.90;;;;;;4970638;28;20581;-63
2022/01/18 01:31:57;;;;;;;9.97;1.70;;;6.40;99.90;;;;;;4978631;28;20204;-63
2022/01/18 01:34:01;;;;;;;5.43;1.33;;;6.40;99.90;;;;;;4992556;28;20238;-63
2022/01/18 01:36:45;;;;;;;6.50;1.50;;;6.40;99.90;;;;;;4984267;28;20731;-63
2022/01/18 01:42:07;;;;;;;9.30;1.20;;;6.30;99.90;;;;;;4986732;28;20677;-64
2022/01/18 01:44:48;;;;;;;3.13;1.10;;;6.30;99.90;;;;;;4982225;28;20302;-64
2022/01/18 01:47:21;;;;;;;8.47;1.90;;;6.40;99.90;;;;;;4959368;28;20211;-64
2022/01/18 01:49:50;;;;;;;5.07;1.00;;;6.40;99.90;;;;;;4986592;28;20426;-64
2022/01/18 01:52:20;;;;;;;7.00;1.80;;;6.40;99.90;;;;;;4965380;28;20222;-64
2022/01/18 01:54:47;;;;;;;6.20;1.57;;;6.50;99.90;;;;;;4986447;28;20216;-63
2022/01/18 01:57:15;;;;;;;10.17;1.40;;;6.50;99.90;;;;;;4988195;28;20207;-63
2022/01/18 01:59:42;;;;;;;8.30;1.70;;;6.50;99.90;;;;;;4983979;28;20765;-63
2022/01/18 02:02:09;;;;;;;10.10;2.27;;;6.50;99.90;;;;;;4968124;28;20214;-63
2022/01/18 02:04:37;;;;;;;10.77;1.60;;;6.50;99.90;;;;;;4991889;28;20199;-64
2022/01/18 02:07:05;;;;;;;11.23;1.60;;;6.60;99.90;;;;;;4961671;28;20211;-63
2022/01/18 02:09:33;;;;;;;12.50;2.50;;;6.60;99.90;;;;;;4971212;28;20234;-64
2022/01/18 02:12:01;;;;;;;16.60;2.70;;;6.60;99.90;;;;;;4978820;28;20202;-63
2022/01/18 02:14:29;;;;;;;12.93;2.40;;;6.70;99.90;;;;;;4988748;28;20765;-63
2022/01/18 02:22:43;;;;;;;18.33;2.70;;;6.70;99.90;;;;;;4914125;29;20225;-62
2022/01/18 02:25:10;;;;;;;17.80;2.90;;;6.70;99.90;;;;;;4877305;29;20214;-63
2022/01/18 02:27:37;;;;;;;11.53;2.60;;;6.70;99.90;;;;;;4937455;28;20213;-63
2022/01/18 02:30:05;;;;;;;16.63;2.63;;;6.70;99.90;;;;;;4978744;28;20215;-63
2022/01/18 02:32:32;;;;;;;12.93;2.13;;;6.60;99.90;;;;;;4972500;28;20677;-64
2022/01/18 02:35:00;;;;;;;14.40;3.87;;;6.60;99.90;;;;;;4984096;28;20201;-63
2022/01/18 02:37:27;;;;;;;16.60;2.63;;;6.60;99.90;;;;;;4990938;28;20199;-63
2022/01/18 02:39:55;;;;;;;11.63;2.70;;;6.50;99.90;;;;;;4978054;28;20747;-64
2022/01/18 02:42:29;;;;;;;8.50;1.87;;;6.40;99.90;;;;;;4982335;28;20241;-63
2022/01/18 02:44:57;;;;;;;17.93;2.67;;;6.50;99.90;;;;;;4979553;28;20195;-62
2022/01/18 02:47:24;;;;;;;17.53;2.70;;;6.40;99.90;;;;;;4951284;28;20230;-62
2022/01/18 02:49:51;;;;;;;17.57;3.00;;;6.30;99.90;;;;;;4974277;28;20238;-63
2022/01/18 02:52:19;;;;;;;14.47;2.67;;;6.30;99.90;;;;;;4979722;28;20206;-62
2022/01/18 02:54:46;;;;;;;6.10;1.67;;;6.30;99.90;;;;;;4994303;28;20198;-63
2022/01/18 02:57:23;;;;;;;4.90;1.37;;;6.20;99.90;;;;;;4977104;28;20286;-62
2022/01/18 03:00:04;;;;;;;10.23;2.40;;;6.20;99.90;;;;;;4977830;28;20233;-62
2022/01/18 03:05:17;;;;;;;10.63;1.97;;;6.10;99.90;;;;;;4964928;28;20264;-62
2022/01/18 03:07:45;;;;;;;12.07;2.27;;;6.10;99.90;;;;;;4987098;28;20204;-63
2022/01/18 03:10:14;;;;;;;12.10;2.00;;;6.10;99.90;;;;;;4982140;28;20271;-62
2022/01/18 03:12:43;;;;;;;16.07;2.90;;;6.10;99.90;;;;;;4956079;28;20207;-63
2022/01/18 03:15:10;;;;;;;22.60;2.93;;;6.10;99.90;;;;;;4988122;28;20196;-62
2022/01/18 03:17:38;;;;;;;15.93;2.43;;;6.10;99.90;;;;;;4971079;28;20285;-62
2022/01/18 03:20:06;;;;;;;18.43;3.40;;;6.20;99.90;;;;;;4975792;28;20219;-62
2022/01/18 03:22:34;;;;;;;17.23;3.57;;;6.30;99.90;;;;;;4977985;28;20211;-62
2022/01/18 03:25:13;;;;;;;21.17;3.63;;;6.30;99.90;;;;;;4985413;28;20246;-63
2022/01/18 03:28:07;;;;;;;10.63;2.57;;;6.40;99.90;;;;;;4978261;28;20612;-63
2022/01/18 03:30:35;;;;;;;25.47;4.20;;;6.40;99.90;;;;;;4988049;28;20208;-63
2022/01/18 03:33:03;;;;;;;14.40;2.97;;;6.40;99.90;;;;;;4972309;28;20317;-63
2022/01/18 03:35:30;;;;;;;10.63;2.50;;;6.40;99.90;;;;;;4969596;28;20234;-63
2022/01/18 03:37:57;;;;;;;27.03;3.57;;;6.40;99.90;;;;;;4978482;28;20206;-63
2022/01/18 03:40:25;;;;;;;11.87;2.50;;;6.40;99.90;;;;;;4977326;28;20203;-63
2022/01/18 03:42:55;;;;;;;18.73;3.10;;;6.40;99.90;;;;;;4981892;28;20212;-63
2022/01/18 03:45:27;;;;;;;17.50;3.60;;;6.40;99.90;;;;;;4991373;28;20199;-63
2022/01/18 03:47:56;;;;;;;26.20;4.53;;;6.50;99.90;;;;;;4987875;28;20207;-63
2022/01/18 03:50:24;;;;;;;20.87;3.57;;;6.50;99.90;;;;;;4966064;28;20666;-63
2022/01/18 03:52:52;;;;;;;19.37;3.50;;;6.60;99.90;;;;;;4979350;28;20318;-63
2022/01/18 03:55:21;;;;;;;28.97;3.93;;;6.70;99.90;;;;;;4975972;28;20215;-64
2022/01/18 03:57:49;;;;;;;20.80;3.63;;;6.70;99.90;;;;;;4974208;28;20217;-62
2022/01/18 04:00:20;;;;;;;29.10;4.80;;;6.70;99.90;;;;;;4990760;28;20218;-63
2022/01/18 04:02:48;;;;;;;17.33;3.70;;;6.70;99.90;;;;;;4996889;28;20195;-64
2022/01/18 04:05:16;;;;;;;29.00;4.37;;;6.70;99.90;;;;;;4975943;28;20204;-63
2022/01/18 04:07:44;;;;;;;19.43;3.43;;;6.70;99.90;;;;;;4986385;28;20675;-63
2022/01/18 04:10:11;;;;;;;27.53;4.27;;;6.70;99.90;;;;;;4968692;28;20281;-63
2022/01/18 04:12:39;;;;;;;29.13;4.03;;;6.80;99.90;;;;;;4966158;28;20478;-63
2022/01/18 04:15:08;;;;;;;20.83;3.57;;;6.70;99.90;;;;;;4996266;28;20199;-63
2022/01/18 04:17:52;;;;;;;30.67;4.77;;;6.70;99.90;;;;;;4989282;28;21897;-63
2022/01/18 04:26:00;;;;;;;21.67;4.10;;;6.80;99.90;;;;;;4997158;28;20579;-63
2022/01/18 04:28:35;;;;;;;20.87;3.57;;;6.70;99.90;;;;;;4957225;28;25483;-63
2022/01/18 04:31:03;;;;;;;27.60;4.90;;;6.80;99.90;;;;;;4985123;28;20203;-63
2022/01/18 04:33:31;;;;;;;30.57;4.97;;;6.80;99.90;;;;;;4973856;28;20211;-63
2022/01/18 04:35:59;;;;;;;38.27;5.57;;;6.80;99.90;;;;;;4960057;28;20207;-62
2022/01/18 04:38:26;;;;;;;30.73;4.47;;;6.80;99.90;;;;;;4971373;28;20211;-63
2022/01/18 04:40:53;;;;;;;28.87;4.00;;;6.80;99.90;;;;;;4977222;28;21193;-63
2022/01/18 04:43:26;;;;;;;19.07;4.13;;;6.80;99.90;;;;;;4994048;28;20258;-63
2022/01/18 04:48:40;;;;;;;21.63;3.57;;;6.80;99.90;;;;;;4967570;28;20234;-63
2022/01/18 04:51:09;;;;;;;21.90;3.83;;;6.80;99.90;;;;;;4968908;28;20231;-63
2022/01/18 04:53:38;;;;;;;31.37;5.40;;;6.80;99.90;;;;;;4966104;28;20207;-63
2022/01/18 04:56:13;;;;;;;25.83;4.00;;;6.80;99.90;;;;;;4968482;28;20221;-63
2022/01/18 04:58:40;;;;;;;24.47;4.33;;;6.80;99.90;;;;;;4975933;28;20214;-63
2022/01/18 05:01:08;;;;;;;24.67;4.67;;;6.80;99.90;;;;;;4983921;28;20311;-63
2022/01/18 05:03:35;;;;;;;22.87;3.83;;;6.80;99.90;;;;;;4979596;28;20203;-63
2022/01/18 05:06:08;;;;;;;23.37;4.27;;;6.80;99.90;;;;;;4983976;28;20210;-63
2022/01/18 05:08:36;;;;;;;22.67;4.30;;;6.80;99.90;;;;;;4959021;28;20590;-62
2022/01/18 05:11:03;;;;;;;13.83;3.50;;;6.80;99.90;;;;;;4989942;28;20199;-61
2022/01/18 05:16:39;;;;;;;31.67;3.87;;;6.80;99.90;;;;;;4990165;28;20194;-62
2022/01/18 05:19:13;;;;;;;20.57;3.73;;;6.70;99.90;;;;;;4974361;28;20227;-62
2022/01/18 05:24:29;;;;;;;24.33;4.13;;;6.70;99.90;;;;;;4962439;28;20216;-64
2022/01/18 05:26:58;;;;;;;23.07;4.10;;;6.80;99.90;;;;;;4989194;28;20217;-62
2022/01/18 05:29:25;;;;;;;30.07;3.93;;;6.80;99.90;;;;;;4970410;28;20719;-62
2022/01/18 05:31:52;;;;;;;21.27;3.63;;;6.80;99.90;;;;;;4973817;28;20229;-62
2022/01/18 05:34:20;;;;;;;14.43;3.47;;;6.80;99.90;;;;;;4970921;28;20209;-63
2022/01/18 05:36:49;;;;;;;20.43;3.40;;;6.80;99.90;;;;;;4965054;28;20210;-62
2022/01/18 05:39:16;;;;;;;19.13;4.37;;;6.90;99.90;;;;;;4944149;28;20822;-62
2022/01/18 05:41:44;;;;;;;25.03;4.00;;;6.90;99.90;;;;;;4988388;28;20317;-62
2022/01/18 05:44:12;;;;;;;14.93;3.37;;;6.90;99.90;;;;;;4958098;28;20751;-62
2022/01/18 05:46:39;;;;;;;14.53;2.73;;;6.90;99.90;;;;;;4993344;28;20199;-62
2022/01/18 05:49:06;;;;;;;20.57;3.20;;;6.90;99.90;;;;;;4972617;28;20230;-62
2022/01/18 05:51:36;;;;;;;26.80;4.20;;;6.90;99.90;;;;;;4967648;28;20214;-64
2022/01/18 05:54:06;;;;;;;26.70;4.33;;;6.90;99.90;;;;;;4958484;28;20627;-64
2022/01/18 05:56:33;;;;;;;23.20;3.30;;;6.90;99.90;;;;;;4985066;28;20231;-62
2022/01/18 05:59:03;;;;;;;29.93;4.03;;;6.90;99.90;;;;;;4968840;28;20285;-62
2022/01/18 06:01:34;;;;;;;24.57;3.87;;;6.90;99.90;;;;;;4956467;28;20246;-62
2022/01/18 06:04:11;;;;;;;27.40;3.70;;;6.90;99.90;;;;;;4954744;28;20226;-62
2022/01/18 06:06:55;;;;;;;33.03;5.07;;;6.90;99.90;;;;;;4968681;28;20799;-63
2022/01/18 06:09:24;;;;;;;23.17;3.27;;;6.90;99.90;;;;;;4956341;28;20229;-62
2022/01/18 06:11:52;;;;;;;23.93;4.10;;;6.90;99.90;;;;;;4971874;28;20237;-62
2022/01/18 06:14:19;;;;;;;18.67;3.70;;;6.90;99.90;;;;;;4979544;28;20469;-62
2022/01/18 06:16:47;;;;;;;21.47;3.67;;;6.90;99.90;;;;;;4960687;28;20731;-62
2022/01/18 06:19:14;;;;;;;34.73;4.70;;;6.90;99.90;;;;;;4963421;28;20253;-62
2022/01/18 06:21:41;;;;;;;18.93;3.43;;;6.90;99.90;;;;;;4982671;28;20207;-64
2022/01/18 06:24:09;;;;;;;18.33;4.33;;;6.90;99.90;;;;;;4957378;28;20234;-63
2022/01/18 06:26:38;;;;;;;15.13;3.27;;;6.80;99.90;;;;;;4968778;28;20219;-63
2022/01/18 06:29:05;;;;;;;29.07;4.83;;;6.80;99.90;;;;;;4991413;28;20800;-64
2022/01/18 06:31:32;;;;;;;18.30;4.07;;;6.70;99.90;;;;;;4975123;28;20203;-63
2022/01/18 06:33:59;;;;;;;18.63;3.70;;;6.70;99.90;;;;;;4973752;28;20846;-62
2022/01/18 06:36:26;;;;;;;19.57;3.60;;;6.60;99.90;;;;;;4981242;28;20214;-63
2022/01/18 06:38:53;;;;;;;24.33;4.07;;;6.60;99.90;;;;;;4965457;28;20362;-64
2022/01/18 06:41:20;;;;;;;16.33;3.77;;;6.60;99.90;;;;;;4973759;28;20206;-63
2022/01/18 06:43:48;;;;;;;21.40;2.87;;;6.50;99.90;;;;;;4982931;28;20867;-63
2022/01/18 06:46:15;;;;;;;19.17;3.13;;;6.40;99.90;;;;;;4986849;28;20231;-64
2022/01/18 06:48:44;;;;;;;14.70;3.13;;;6.40;99.90;;;;;;4964899;28;20893;-63
2022/01/18 06:51:11;;;;;;;15.67;2.73;;;6.30;99.90;;;;;;4980145;28;20314;-64
2022/01/18 06:53:44;;;;;;;24.93;3.50;;;6.30;99.90;;;;;;4976321;28;20210;-63
2022/01/18 06:56:12;;;;;;;25.43;4.73;;;6.20;99.90;;;;;;4966781;28;20206;-63
2022/01/18 06:58:40;;;;;;;31.30;3.63;;;6.20;99.90;;;;;;4965953;28;20248;-63
2022/01/18 07:01:10;;;;;;;21.90;2.87;;;6.10;99.90;;;;;;4974250;28;20202;-62
2022/01/18 07:03:38;;;;;;;18.53;3.20;;;6.10;99.90;;;;;;4955154;28;20669;-63
2022/01/18 07:06:06;;;;;;;19.13;2.67;;;6.00;99.90;;;;;;4972864;28;20280;-63
2022/01/18 07:08:34;;;;;;;17.30;3.37;;;6.00;99.90;;;;;;4980338;28;20215;-63
2022/01/18 07:11:01;;;;;;;16.43;3.40;;;5.90;99.90;;;;;;4957486;28;20234;-63
2022/01/18 07:13:28;;;;;;;26.37;3.37;;;6.00;99.90;;;;;;4971899;28;20205;-64
2022/01/18 07:15:56;;;;;;;19.20;2.90;;;5.90;99.90;;;;;;4960123;28;20207;-62
2022/01/18 07:18:24;;;;;;;18.57;3.53;;;5.90;99.90;;;;;;4957541;28;20297;-62
2022/01/18 07:20:51;;;;;;;20.73;2.93;;;5.90;99.90;;;;;;4982460;28;20957;-62
2022/01/18 07:23:19;;;;;;;14.00;2.90;;;5.90;99.90;;;;;;4984190;28;20287;-62
2022/01/18 07:25:48;;;;;;;14.87;3.20;;;5.90;99.90;;;;;;4982211;28;20677;-62
2022/01/18 07:28:17;;;;;;;22.10;3.17;;;5.90;99.90;;;;;;4953636;28;20658;-63
2022/01/18 07:30:44;;;;;;;16.60;2.97;;;5.90;99.90;;;;;;4970594;28;20218;-62
2022/01/18 07:33:13;;;;;;;12.83;2.23;;;6.00;99.90;;;;;;4984672;28;20200;-62
2022/01/18 07:35:42;;;;;;;12.67;2.20;;;6.00;99.90;;;;;;4971578;28;20697;-62
2022/01/18 07:38:12;;;;;;;11.80;2.37;;;6.00;99.90;;;;;;4983181;28;20211;-62
2022/01/18 07:40:41;;;;;;;14.60;2.40;;;6.10;99.90;;;;;;4971514;28;20223;-62
2022/01/18 07:43:09;;;;;;;14.17;2.40;;;6.10;99.90;;;;;;4965534;28;20228;-62
2022/01/18 07:45:36;;;;;;;13.43;2.17;;;6.20;99.90;;;;;;4974966;28;20704;-63
2022/01/18 07:48:03;;;;;;;14.73;2.37;;;6.20;99.90;;;;;;4983576;28;20250;-62
2022/01/18 07:50:30;;;;;;;18.67;2.47;;;6.20;99.90;;;;;;4965507;28;20245;-61
2022/01/18 07:52:58;;;;;;;15.30;2.93;;;6.30;99.90;;;;;;4979375;28;20228;-61
2022/01/18 07:55:25;;;;;;;10.67;2.03;;;6.30;99.90;;;;;;4970370;28;20213;-62
2022/01/18 07:57:54;;;;;;;15.30;2.90;;;6.40;99.90;;;;;;4970895;28;20337;-62
2022/01/18 08:00:21;;;;;;;12.43;2.63;;;6.40;99.90;;;;;;4978794;28;20207;-62
2022/01/18 08:02:47;;;;;;;10.23;2.60;;;6.40;99.90;;;;;;4980604;28;20203;-61
2022/01/18 08:05:15;;;;;;;14.83;2.40;;;6.50;99.90;;;;;;4990118;28;20202;-62
2022/01/18 08:07:42;;;;;;;16.47;2.40;;;6.50;99.90;;;;;;4963205;28;20214;-62
2022/01/18 08:10:12;;;;;;;15.40;2.77;;;6.50;99.90;;;;;;4982334;28;20230;-62
2022/01/18 08:12:39;;;;;;;13.13;2.60;;;6.60;99.90;;;;;;4979761;28;20226;-62
2022/01/18 08:15:17;;;;;;;10.27;2.43;;;6.60;99.90;;;;;;4965657;28;20683;-63
2022/01/18 08:17:48;;;;;;;11.57;3.13;;;6.60;99.90;;;;;;4970080;28;20298;-63
2022/01/18 08:20:16;;;;;;;15.47;2.70;;;6.70;99.90;;;;;;4988209;28;20204;-62
2022/01/18 08:22:45;;;;;;;7.87;2.10;;;6.70;99.90;;;;;;4964952;28;20226;-62
2022/01/18 08:25:15;;;;;;;18.00;2.63;;;6.70;99.90;;;;;;4981218;28;20704;-62
2022/01/18 08:27:43;;;;;;;11.07;2.80;;;6.70;99.90;;;;;;4981082;28;20224;-62
2022/01/18 08:30:12;;;;;;;16.90;3.10;;;6.70;99.90;;;;;;4978754;28;20381;-61
2022/01/18 08:32:40;;;;;;;12.97;3.33;;;6.70;99.90;;;;;;4981988;28;20204;-62
2022/01/18 08:35:08;;;;;;;9.50;2.20;;;6.70;99.90;;;;;;4984041;28;20682;-62
2022/01/18 08:37:35;;;;;;;20.83;2.97;;;6.70;99.90;;;;;;4977479;28;20221;-61
2022/01/18 08:40:02;;;;;;;21.30;3.53;;;6.80;99.90;;;;;;4981834;28;20217;-62
2022/01/18 08:42:32;;;;;;;12.47;2.57;;;6.80;99.90;;;;;;4960618;28;20213;-62
2022/01/18 08:44:59;;;;;;;15.97;3.37;;;6.80;99.90;;;;;;4946643;28;20382;-63
2022/01/18 08:47:26;;;;;;;14.33;2.57;;;6.80;99.90;;;;;;4965701;28;20588;-63
2022/01/18 08:49:53;;;;;;;11.13;3.10;;;6.80;99.90;;;;;;4975462;28;20715;-62
2022/01/18 08:52:21;;;;;;;20.43;2.70;;;6.90;99.90;;;;;;4995584;28;20199;-62
2022/01/18 08:54:48;;;;;;;15.67;3.13;;;6.90;99.90;;;;;;4968609;28;20206;-62
2022/01/18 08:57:16;;;;;;;18.17;2.60;;;6.90;99.90;;;;;;4968835;28;20237;-62
2022/01/18 08:59:44;;;;;;;17.70;2.60;;;6.90;99.90;;;;;;4980264;28;20572;-63
2022/01/18 09:02:12;;;;;;;21.07;2.83;;;6.90;99.90;;;;;;4980319;28;20206;-62
2022/01/18 09:04:39;;;;;;;22.50;3.30;;;7.00;99.90;;;;;;4971627;28;20204;-63
2022/01/18 09:07:09;;;;;;;15.97;3.40;;;7.00;99.90;;;;;;4995561;28;20233;-63
2022/01/18 09:09:38;;;;;;;18.67;3.00;;;7.00;99.90;;;;;;4974290;28;20202;-63
2022/01/18 09:12:06;;;;;;;11.80;2.77;;;7.00;99.90;;;;;;4984094;28;20326;-63
2022/01/18 09:14:33;;;;;;;17.03;3.20;;;7.10;99.90;;;;;;4981500;28;20202;-63
2022/01/18 09:17:02;;;;;;;14.87;2.90;;;7.00;99.90;;;;;;4972976;28;20313;-63
2022/01/18 09:19:28;;;;;;;19.80;3.00;;;7.10;99.90;;;;;;4990561;28;20200;-63
2022/01/18 09:21:57;;;;;;;19.13;2.70;;;7.10;99.90;;;;;;4989611;28;20207;-63
2022/01/18 09:24:24;;;;;;;12.67;2.83;;;7.10;99.90;;;;;;4982851;28;20665;-62
2022/01/18 09:26:53;;;;;;;11.20;2.20;;;7.10;99.90;;;;;;4966049;28;20206;-63
2022/01/18 09:29:20;;;;;;;24.23;4.20;;;7.10;99.90;;;;;;4987464;28;20199;-63
2022/01/18 09:31:47;;;;;;;11.73;3.17;;;7.10;99.90;;;;;;4962812;28;20245;-62
2022/01/18 09:34:15;;;;;;;18.30;2.60;;;7.20;99.90;;;;;;4997511;28;20256;-63
2022/01/18 09:36:43;;;;;;;24.97;4.17;;;7.20;99.90;;;;;;4984616;28;20202;-62
2022/01/18 09:39:10;;;;;;;13.53;2.63;;;7.20;99.90;;;;;;4992811;28;21123;-63
2022/01/18 09:41:40;;;;;;;18.50;3.03;;;7.30;99.90;;;;;;4976955;28;20222;-63
2022/01/18 09:44:08;;;;;;;15.13;2.87;;;7.20;99.90;;;;;;4975727;28;20253;-63
2022/01/18 09:46:35;;;;;;;9.77;3.07;;;7.30;99.90;;;;;;4975386;28;20217;-64
2022/01/18 09:49:03;;;;;;;11.20;2.80;;;7.20;99.90;;;;;;4974274;28;20203;-63
2022/01/18 09:51:31;;;;;;;18.40;2.40;;;7.30;99.90;;;;;;4983970;28;20312;-62
2022/01/18 09:53:58;;;;;;;15.57;2.60;;;7.30;99.90;;;;;;4995393;28;20191;-63
2022/01/18 09:56:25;;;;;;;12.23;2.70;;;7.30;99.90;;;;;;4972867;28;20199;-63
2022/01/18 09:58:52;;;;;;;14.23;2.50;;;7.30;99.90;;;;;;4980485;28;20206;-63
2022/01/18 10:01:20;;;;;;;21.20;3.33;;;7.30;99.90;;;;;;4981881;28;20571;-63
2022/01/18 10:03:47;;;;;;;16.77;3.80;;;7.30;99.90;;;;;;4972191;28;20208;-63
2022/01/18 10:06:18;;;;;;;12.80;2.63;;;7.30;99.90;;;;;;4974514;28;20312;-63
2022/01/18 10:08:49;;;;;;;10.70;2.27;;;7.30;99.90;;;;;;4977425;28;20210;-62
2022/01/18 10:11:19;;;;;;;15.10;2.40;;;7.30;99.90;;;;;;4977526;28;20233;-62
2022/01/18 10:13:49;;;;;;;10.50;2.57;;;7.40;99.90;;;;;;4976403;28;20203;-62
2022/01/18 10:16:18;;;;;;;7.63;2.10;;;7.30;99.90;;;;;;4977824;28;20215;-62
2022/01/18 10:18:48;;;;;;;16.33;2.17;;;7.40;99.90;;;;;;4986934;28;20216;-63
2022/01/18 10:21:28;;;;;;;8.80;1.90;;;7.40;99.90;;;;;;4978762;28;20210;-62
2022/01/18 10:24:12;;;;;;;9.90;2.07;;;7.40;99.90;;;;;;4975976;28;20202;-62
2022/01/18 10:26:41;;;;;;;17.07;2.67;;;7.50;99.90;;;;;;4977251;28;21152;-62
2022/01/18 10:29:08;;;;;;;11.27;3.03;;;7.50;99.90;;;;;;4972643;28;20204;-61
2022/01/18 10:31:40;;;;;;;8.17;2.10;;;7.50;99.90;;;;;;4962281;28;20632;-64
2022/01/18 10:34:25;;;;;;;10.10;2.40;;;7.50;99.90;;;;;;4986585;28;20217;-63
2022/01/18 10:36:59;;;;;;;6.27;1.93;;;7.50;99.90;;;;;;4967551;28;20204;-61
2022/01/18 10:39:30;;;;;;;9.67;1.73;;;7.50;99.90;;;;;;4974635;28;20206;-61
2022/01/18 10:41:57;;;;;;;9.83;1.93;;;7.50;99.90;;;;;;4981112;28;20195;-62
2022/01/18 10:44:24;;;;;;;6.53;1.77;;;7.60;99.90;;;;;;4967463;28;20202;-61
2022/01/18 10:46:54;;;;;;;11.37;2.33;;;7.50;99.90;;;;;;4983709;28;20203;-62
2022/01/18 10:49:35;;;;;;;11.67;2.20;;;7.50;99.90;;;;;;4988262;28;20211;-62
2022/01/18 10:52:06;;;;;;;8.17;2.43;;;7.50;99.90;;;;;;4957790;28;20226;-61
2022/01/18 10:54:54;;;;;;;8.73;2.10;;;7.50;99.90;;;;;;4981016;28;20330;-61
2022/01/18 10:57:23;;;;;;;5.70;1.67;;;7.40;99.90;;;;;;4975635;28;20660;-62
2022/01/18 10:59:56;;;;;;;6.33;1.80;;;7.40;99.90;;;;;;4974139;28;20203;-62
2022/01/18 11:02:23;;;;;;;11.00;1.83;;;7.40;99.90;;;;;;4987630;28;20203;-61
2022/01/18 11:04:52;;;;;;;13.23;1.67;;;7.40;99.90;;;;;;4978967;28;20195;-62
2022/01/18 11:07:22;;;;;;;6.13;1.63;;;7.40;99.90;;;;;;4989250;28;20305;-61
2022/01/18 11:09:50;;;;;;;7.50;1.70;;;7.40;99.90;;;;;;4989656;28;20198;-62
2022/01/18 11:12:20;;;;;;;7.63;2.43;;;7.40;99.90;;;;;;4979234;28;21497;-61
2022/01/18 11:14:59;;;;;;;10.30;2.07;;;7.40;99.90;;;;;;4984581;28;20199;-61
2022/01/18 11:17:27;;;;;;;10.43;2.40;;;7.40;99.90;;;;;;4982882;28;20249;-61
2022/01/18 11:19:57;;;;;;;9.73;1.57;;;7.40;99.90;;;;;;4965089;28;20210;-63
2022/01/18 11:22:26;;;;;;;11.47;2.57;;;7.40;99.90;;;;;;4979386;28;20220;-61
2022/01/18 11:24:57;;;;;;;13.57;2.20;;;7.40;99.90;;;;;;4985679;28;20202;-61
2022/01/18 11:27:28;;;;;;;10.23;1.77;;;7.40;99.90;;;;;;4977003;28;20240;-61
2022/01/18 11:29:56;;;;;;;12.50;2.50;;;7.40;99.90;;;;;;4967452;28;20582;-61
2022/01/18 11:32:26;;;;;;;19.47;1.80;;;7.40;99.90;;;;;;4971444;28;20233;-63
2022/01/18 11:34:58;;;;;;;11.47;2.50;;;7.30;99.90;;;;;;4962931;28;20203;-63
2022/01/18 11:37:33;;;;;;;9.07;2.03;;;7.40;99.90;;;;;;4953637;28;21106;-61
2022/01/18 11:40:03;;;;;;;7.60;2.07;;;7.40;99.90;;;;;;4985290;28;20823;-61
2022/01/18 11:42:46;;;;;;;5.10;2.20;;;7.40;99.90;;;;;;4971402;28;20234;-62
2022/01/18 11:45:34;;;;;;;8.40;2.60;;;7.40;99.90;;;;;;4971582;28;20231;-61
2022/01/18 11:48:05;;;;;;;5.10;1.67;;;7.40;99.90;;;;;;4977439;28;20683;-61
2022/01/18 11:50:34;;;;;;;8.57;2.50;;;7.30;99.90;;;;;;4957210;28;20683;-61
2022/01/18 11:53:26;;;;;;;7.00;2.20;;;7.30;99.90;;;;;;4968693;28;20231;-61
2022/01/18 11:55:55;;;;;;;7.10;2.43;;;7.30;99.90;;;;;;4969214;28;20238;-61
2022/01/18 11:58:23;;;;;;;4.70;2.50;;;7.30;99.90;;;;;;4986373;28;20862;-61
2022/01/18 12:00:55;;;;;;;7.60;2.90;;;7.20;99.90;;;;;;4962834;28;20203;-63
2022/01/18 12:03:26;;;;;;;3.23;2.10;;;7.20;99.90;;;;;;4979501;28;20211;-61
2022/01/18 12:05:53;;;;;;;7.43;2.10;;;7.20;99.90;;;;;;4979008;28;20207;-61
2022/01/18 12:08:31;;;;;;;3.83;1.37;;;7.20;99.90;;;;;;4976939;28;20264;-61
2022/01/18 12:10:59;;;;;;;4.23;1.63;;;7.20;99.90;;;;;;4982054;28;20782;-61
2022/01/18 12:13:36;;;;;;;8.07;2.40;;;7.20;99.90;;;;;;4982266;28;20227;-61
2022/01/18 12:16:17;;;;;;;3.93;1.07;;;7.20;99.90;;;;;;4976519;28;20213;-61
2022/01/18 12:18:53;;;;;;;3.20;1.10;;;7.20;99.90;;;;;;4969726;28;20209;-61
2022/01/18 12:21:22;;;;;;;3.70;1.20;;;7.20;99.90;;;;;;4982339;28;20576;-61
2022/01/18 12:23:49;;;;;;;1.10;0.80;;;7.20;99.90;;;;;;4981209;28;20290;-61
2022/01/18 12:26:34;;;;;;;2.20;0.87;;;7.20;99.90;;;;;;4971749;28;23264;-61
2022/01/18 12:29:24;;;;;;;5.60;1.33;;;7.20;99.90;;;;;;4989144;28;20314;-63
2022/01/18 12:32:06;;;;;;;4.33;1.50;;;7.20;99.90;;;;;;4970875;28;20233;-62
2022/01/18 12:34:37;;;;;;;5.80;1.87;;;7.20;99.90;;;;;;4972991;28;20307;-62
2022/01/18 12:37:48;;;;;;;6.73;2.33;;;7.30;99.90;;;;;;4980040;28;20585;-63
2022/01/18 12:40:27;;;;;;;4.77;2.00;;;7.30;99.90;;;;;;4975188;28;20222;-62
2022/01/18 12:45:49;;;;;;;4.63;2.43;;;7.30;99.90;;;;;;4981841;28;20270;-62
2022/01/18 12:48:16;;;;;;;7.37;2.77;;;7.30;99.90;;;;;;4978252;28;20675;-61
2022/01/18 12:50:46;;;;;;;6.00;2.50;;;7.30;99.90;;;;;;4962652;28;20222;-62
2022/01/18 12:53:15;;;;;;;9.27;3.10;;;7.30;99.90;;;;;;4980783;28;20213;-61
2022/01/18 12:55:45;;;;;;;6.13;2.83;;;7.30;99.90;;;;;;4973168;28;20375;-61
2022/01/18 12:58:15;;;;;;;8.53;2.37;;;7.30;99.90;;;;;;4982331;28;20230;-61
2022/01/18 13:00:45;;;;;;;8.87;2.97;;;7.30;99.90;;;;;;4974743;28;20211;-61
2022/01/18 13:03:19;;;;;;;4.40;2.70;;;7.30;99.90;;;;;;4966360;28;20221;-60
2022/01/18 13:05:48;;;;;;;7.43;3.33;;;7.30;99.90;;;;;;4967154;28;20209;-62
2022/01/18 13:08:18;;;;;;;7.53;3.53;;;7.30;99.90;;;;;;4963560;28;20605;-61
2022/01/18 13:10:47;;;;;;;8.00;3.10;;;7.30;99.90;;;;;;4966873;28;20225;-60
2022/01/18 13:13:16;;;;;;;6.47;3.23;;;7.30;99.90;;;;;;4976200;28;20326;-60
2022/01/18 13:26:55;;;;;;;5.27;2.60;;;7.30;99.90;;;;;;4976863;28;20598;-62
2022/01/18 13:29:24;;;;;;;6.50;2.73;;;7.30;99.90;;;;;;4970514;28;20555;-62
2022/01/18 13:32:01;;;;;;;6.80;3.00;;;7.40;99.90;;;;;;4975685;28;20221;-61
2022/01/18 13:34:35;;;;;;;6.07;2.73;;;7.30;99.90;;;;;;4980301;28;20264;-62
2022/01/18 13:37:04;;;;;;;6.33;2.60;;;7.30;99.90;;;;;;4976773;28;20261;-62
2022/01/18 13:39:36;;;;;;;6.67;3.17;;;7.30;99.90;;;;;;4988236;28;20229;-62
2022/01/18 13:42:05;;;;;;;5.70;2.80;;;7.30;99.90;;;;;;4966915;28;20210;-61
2022/01/18 13:44:32;;;;;;;5.37;2.90;;;7.20;99.90;;;;;;4967896;28;20250;-62
2022/01/18 13:47:15;;;;;;;5.53;2.77;;;7.20;99.90;;;;;;4979909;28;20203;-61
2022/01/18 13:49:44;;;;;;;6.97;3.33;;;7.20;99.90;;;;;;4943690;28;20373;-61
2022/01/18 13:52:12;;;;;;;9.77;3.70;;;7.20;99.90;;;;;;4970296;28;20732;-62
2022/01/18 13:54:47;;;;;;;5.60;3.13;;;7.20;99.90;;;;;;4955095;28;20223;-61
2022/01/18 13:57:15;;;;;;;8.70;2.87;;;7.30;99.90;;;;;;4950996;28;20214;-61